sensor_id;sensor_type;location;lat;lon;timestamp;pressure;altitude;pressure_sealevel;temperature;humidity
12879;BME280;20617;49.476;10.986;2022-09-14T00:00:42;97540.63;;;19.81;100.00
12879;BME280;20617;49.476;10.986;2022-09-14T00:02:49;97544.09;;;19.82;100.00
12879;BME280;20617;49.476;10.986;2022-09-14T00:04:54;97546.75;;;19.82;100.00
12879;BME280;20617;49.476;10.986;2022-09-14T00:06:59;97539.66;;;19.82;100.00
12879;BME280;20617;49.476;10.986;2022-09-14T00:09:05;97537.84;;;19.83;100.00
12879;BME280;20617;49.476;10.986;2022-09-14T00:11:13;97534.09;;;19.85;100.00
12879;BME280;20617;49.476;10.986;2022-09-14T00:13:18;97535.63;;;19.88;100.00
12879;BME280;20617;49.476;10.986;2022-09-14T00:15:23;97533.09;;;19.86;100.00
12879;BME280;20617;49.476;10.986;2022-09-14T00:17:30;97516.59;;;19.84;100.00
12879;BME280;20617;49.476;10.986;2022-09-14T00:19:45;97511.59;;;19.81;100.00
12879;BME280;20617;49.476;10.986;2022-09-14T00:21:51;97504.78;;;19.79;100.00
12879;BME280;20617;49.476;10.986;2022-09-14T00:23:57;97512.81;;;19.77;100.00
12879;BME280;20617;49.476;10.986;2022-09-14T00:26:05;97503.38;;;19.75;100.00
12879;BME280;20617;49.476;10.986;2022-09-14T00:28:10;97496.72;;;19.71;100.00
12879;BME280;20617;49.476;10.986;2022-09-14T00:30:15;97502.13;;;19.69;100.00
12879;BME280;20617;49.476;10.986;2022-09-14T00:32:20;97501.56;;;19.65;100.00
12879;BME280;20617;49.476;10.986;2022-09-14T00:34:25;97503.50;;;19.63;100.00
12879;BME280;20617;49.476;10.986;2022-09-14T00:36:37;97496.16;;;19.67;100.00
12879;BME280;20617;49.476;10.986;2022-09-14T00:38:42;97507.69;;;19.66;100.00
12879;BME280;20617;49.476;10.986;2022-09-14T00:40:55;97506.56;;;19.68;100.00
12879;BME280;20617;49.476;10.986;2022-09-14T00:43:00;97511.44;;;19.63;100.00
12879;BME280;20617;49.476;10.986;2022-09-14T00:45:10;97498.22;;;19.63;100.00
12879;BME280;20617;49.476;10.986;2022-09-14T00:47:17;97495.72;;;19.62;100.00
12879;BME280;20617;49.476;10.986;2022-09-14T00:49:26;97496.28;;;19.65;100.00
12879;BME280;20617;49.476;10.986;2022-09-14T00:51:40;97488.25;;;19.67;100.00
12879;BME280;20617;49.476;10.986;2022-09-14T00:53:49;97487.25;;;19.68;100.00
12879;BME280;20617;49.476;10.986;2022-09-14T00:55:54;97494.19;;;19.69;100.00
12879;BME280;20617;49.476;10.986;2022-09-14T00:57:59;97483.78;;;19.67;100.00
12879;BME280;20617;49.476;10.986;2022-09-14T01:00:06;97483.78;;;19.67;100.00
12879;BME280;20617;49.476;10.986;2022-09-14T01:02:13;97480.31;;;19.67;100.00
12879;BME280;20617;49.476;10.986;2022-09-14T01:04:20;97483.91;;;19.66;100.00
12879;BME280;20617;49.476;10.986;2022-09-14T01:06:32;97479.75;;;19.63;100.00
12879;BME280;20617;49.476;10.986;2022-09-14T01:08:52;97472.06;;;19.60;100.00
12879;BME280;20617;49.476;10.986;2022-09-14T01:11:15;97469.72;;;19.57;100.00
12879;BME280;20617;49.476;10.986;2022-09-14T01:15:59;97454.44;;;19.51;100.00
12879;BME280;20617;49.476;10.986;2022-09-14T01:18:12;97455.44;;;19.50;100.00
12879;BME280;20617;49.476;10.986;2022-09-14T01:20:22;97442.63;;;19.45;100.00
12879;BME280;20617;49.476;10.986;2022-09-14T01:22:34;97446.53;;;19.41;100.00
12879;BME280;20617;49.476;10.986;2022-09-14T01:24:45;97447.66;;;19.39;100.00
12879;BME280;20617;49.476;10.986;2022-09-14T01:27:18;97446.00;;;19.38;100.00
12879;BME280;20617;49.476;10.986;2022-09-14T01:29:29;97451.13;;;19.39;100.00
12879;BME280;20617;49.476;10.986;2022-09-14T01:31:42;97454.31;;;19.43;100.00
12879;BME280;20617;49.476;10.986;2022-09-14T01:33:54;97454.72;;;19.48;100.00
12879;BME280;20617;49.476;10.986;2022-09-14T01:36:06;97454.59;;;19.50;100.00
12879;BME280;20617;49.476;10.986;2022-09-14T01:38:18;97449.44;;;19.48;100.00
12879;BME280;20617;49.476;10.986;2022-09-14T01:40:28;97445.97;;;19.48;100.00
12879;BME280;20617;49.476;10.986;2022-09-14T01:42:37;97443.22;;;19.49;100.00
12879;BME280;20617;49.476;10.986;2022-09-14T01:44:47;97436.78;;;19.52;100.00
12879;BME280;20617;49.476;10.986;2022-09-14T01:46:54;97446.25;;;19.54;100.00
12879;BME280;20617;49.476;10.986;2022-09-14T01:49:03;97441.53;;;19.58;100.00
12879;BME280;20617;49.476;10.986;2022-09-14T01:51:16;97444.72;;;19.61;100.00
12879;BME280;20617;49.476;10.986;2022-09-14T01:53:27;97453.88;;;19.57;100.00
12879;BME280;20617;49.476;10.986;2022-09-14T01:55:39;97451.81;;;19.51;100.00
12879;BME280;20617;49.476;10.986;2022-09-14T01:57:51;97446.53;;;19.51;100.00
12879;BME280;20617;49.476;10.986;2022-09-14T02:00:01;97447.50;;;19.50;100.00
12879;BME280;20617;49.476;10.986;2022-09-14T02:02:11;97442.06;;;19.52;100.00
12879;BME280;20617;49.476;10.986;2022-09-14T02:04:25;97446.25;;;19.54;100.00
12879;BME280;20617;49.476;10.986;2022-09-14T02:06:34;97433.75;;;19.56;100.00
12879;BME280;20617;49.476;10.986;2022-09-14T02:08:39;97428.19;;;19.59;100.00
12879;BME280;20617;49.476;10.986;2022-09-14T02:10:44;97427.47;;;19.57;100.00
12879;BME280;20617;49.476;10.986;2022-09-14T02:12:53;97416.09;;;19.57;100.00
12879;BME280;20617;49.476;10.986;2022-09-14T02:14:59;97419.72;;;19.56;100.00
12879;BME280;20617;49.476;10.986;2022-09-14T02:17:04;97418.88;;;19.55;100.00
12879;BME280;20617;49.476;10.986;2022-09-14T02:19:09;97421.38;;;19.57;100.00
12879;BME280;20617;49.476;10.986;2022-09-14T02:21:15;97420.00;;;19.53;100.00
12879;BME280;20617;49.476;10.986;2022-09-14T02:23:21;97418.19;;;19.53;100.00
12879;BME280;20617;49.476;10.986;2022-09-14T02:25:26;97411.38;;;19.51;100.00
12879;BME280;20617;49.476;10.986;2022-09-14T02:27:31;97404.84;;;19.45;100.00
12879;BME280;20617;49.476;10.986;2022-09-14T02:29:39;97401.13;;;19.38;100.00
12879;BME280;20617;49.476;10.986;2022-09-14T02:31:57;97404.34;;;19.32;100.00
12879;BME280;20617;49.476;10.986;2022-09-14T02:34:07;97390.19;;;19.23;100.00
12879;BME280;20617;49.476;10.986;2022-09-14T02:36:18;97379.59;;;19.13;100.00
12879;BME280;20617;49.476;10.986;2022-09-14T02:38:31;97382.09;;;19.05;100.00
12879;BME280;20617;49.476;10.986;2022-09-14T02:40:42;97381.56;;;19.02;100.00
12879;BME280;20617;49.476;10.986;2022-09-14T02:42:54;97380.03;;;18.99;100.00
12879;BME280;20617;49.476;10.986;2022-09-14T02:45:10;97370.56;;;18.96;100.00
12879;BME280;20617;49.476;10.986;2022-09-14T02:47:22;97369.63;;;18.97;100.00
12879;BME280;20617;49.476;10.986;2022-09-14T02:49:35;97359.34;;;18.94;100.00
12879;BME280;20617;49.476;10.986;2022-09-14T02:51:47;97352.56;;;18.92;100.00
12879;BME280;20617;49.476;10.986;2022-09-14T02:53:58;97352.69;;;18.90;100.00
12879;BME280;20617;49.476;10.986;2022-09-14T02:56:07;97357.94;;;18.90;100.00
12879;BME280;20617;49.476;10.986;2022-09-14T02:58:13;97352.81;;;18.89;100.00
12879;BME280;20617;49.476;10.986;2022-09-14T03:00:21;97354.63;;;18.88;100.00
12879;BME280;20617;49.476;10.986;2022-09-14T03:02:26;97357.94;;;18.90;100.00
12879;BME280;20617;49.476;10.986;2022-09-14T03:04:31;97364.63;;;18.94;100.00
12879;BME280;20617;49.476;10.986;2022-09-14T03:06:36;97365.47;;;18.95;100.00
12879;BME280;20617;49.476;10.986;2022-09-14T03:08:42;97371.44;;;18.97;100.00
12879;BME280;20617;49.476;10.986;2022-09-14T03:10:47;97374.47;;;19.02;100.00
12879;BME280;20617;49.476;10.986;2022-09-14T03:12:52;97376.16;;;19.03;100.00
12879;BME280;20617;49.476;10.986;2022-09-14T03:14:57;97383.09;;;19.04;100.00
12879;BME280;20617;49.476;10.986;2022-09-14T03:17:05;97399.75;;;19.05;100.00
12879;BME280;20617;49.476;10.986;2022-09-14T03:19:10;97415.28;;;19.08;100.00
12879;BME280;20617;49.476;10.986;2022-09-14T03:21:16;97427.38;;;19.10;100.00
12879;BME280;20617;49.476;10.986;2022-09-14T03:23:21;97443.91;;;19.12;100.00
12879;BME280;20617;49.476;10.986;2022-09-14T03:25:26;97442.09;;;19.13;100.00
12879;BME280;20617;49.476;10.986;2022-09-14T03:27:31;97448.19;;;19.13;100.00
12879;BME280;20617;49.476;10.986;2022-09-14T03:29:38;97452.53;;;19.14;100.00
12879;BME280;20617;49.476;10.986;2022-09-14T03:31:43;97449.44;;;19.19;100.00
12879;BME280;20617;49.476;10.986;2022-09-14T03:33:54;97451.66;;;19.14;100.00
12879;BME280;20617;49.476;10.986;2022-09-14T03:35:59;97438.19;;;19.07;100.00
12879;BME280;20617;49.476;10.986;2022-09-14T03:38:04;97439.47;;;19.13;100.00
12879;BME280;20617;49.476;10.986;2022-09-14T03:40:11;97443.63;;;19.15;100.00
12879;BME280;20617;49.476;10.986;2022-09-14T03:42:22;97440.72;;;19.18;100.00
12879;BME280;20617;49.476;10.986;2022-09-14T03:44:27;97437.09;;;19.19;100.00
12879;BME280;20617;49.476;10.986;2022-09-14T03:46:32;97429.16;;;19.19;100.00
12879;BME280;20617;49.476;10.986;2022-09-14T03:48:37;97433.50;;;19.20;100.00
12879;BME280;20617;49.476;10.986;2022-09-14T03:50:45;97425.31;;;19.23;100.00
12879;BME280;20617;49.476;10.986;2022-09-14T03:52:50;97421.56;;;19.26;100.00
12879;BME280;20617;49.476;10.986;2022-09-14T03:54:54;97401.13;;;19.28;100.00
12879;BME280;20617;49.476;10.986;2022-09-14T03:56:59;97403.09;;;19.26;100.00
12879;BME280;20617;49.476;10.986;2022-09-14T03:59:07;97397.22;;;19.22;100.00
12879;BME280;20617;49.476;10.986;2022-09-14T04:01:13;97391.28;;;19.20;100.00
12879;BME280;20617;49.476;10.986;2022-09-14T04:03:19;97366.72;;;19.20;100.00
12879;BME280;20617;49.476;10.986;2022-09-14T04:05:23;97350.31;;;19.07;100.00
12879;BME280;20617;49.476;10.986;2022-09-14T04:07:31;97350.88;;;19.00;100.00
12879;BME280;20617;49.476;10.986;2022-09-14T04:09:36;97361.28;;;19.02;100.00
12879;BME280;20617;49.476;10.986;2022-09-14T04:11:41;97391.69;;;18.96;100.00
12879;BME280;20617;49.476;10.986;2022-09-14T04:13:46;97407.50;;;18.96;100.00
12879;BME280;20617;49.476;10.986;2022-09-14T04:15:55;97412.38;;;19.01;100.00
12879;BME280;20617;49.476;10.986;2022-09-14T04:18:00;97424.47;;;19.04;100.00
12879;BME280;20617;49.476;10.986;2022-09-14T04:20:06;97418.34;;;19.03;100.00
12879;BME280;20617;49.476;10.986;2022-09-14T04:22:11;97396.97;;;19.06;100.00
12879;BME280;20617;49.476;10.986;2022-09-14T04:24:19;97401.81;;;19.11;100.00
12879;BME280;20617;49.476;10.986;2022-09-14T04:26:31;97395.31;;;19.15;100.00
12879;BME280;20617;49.476;10.986;2022-09-14T04:28:36;97403.94;;;19.17;100.00
12879;BME280;20617;49.476;10.986;2022-09-14T04:30:41;97402.41;;;19.14;100.00
12879;BME280;20617;49.476;10.986;2022-09-14T04:32:45;97392.50;;;19.16;100.00
12879;BME280;20617;49.476;10.986;2022-09-14T04:34:50;97393.22;;;19.18;100.00
12879;BME280;20617;49.476;10.986;2022-09-14T04:36:55;97389.31;;;19.22;100.00
12879;BME280;20617;49.476;10.986;2022-09-14T04:39:02;97386.56;;;19.24;100.00
12879;BME280;20617;49.476;10.986;2022-09-14T04:41:12;97374.19;;;19.25;100.00
12879;BME280;20617;49.476;10.986;2022-09-14T04:43:17;97350.31;;;19.26;100.00
12879;BME280;20617;49.476;10.986;2022-09-14T04:45:22;97338.09;;;19.15;100.00
12879;BME280;20617;49.476;10.986;2022-09-14T04:47:27;97330.31;;;19.04;100.00
12879;BME280;20617;49.476;10.986;2022-09-14T04:49:33;97319.34;;;18.99;100.00
12879;BME280;20617;49.476;10.986;2022-09-14T04:51:38;97331.44;;;18.92;100.00
12879;BME280;20617;49.476;10.986;2022-09-14T04:53:44;97336.19;;;18.88;100.00
12879;BME280;20617;49.476;10.986;2022-09-14T04:55:50;97344.91;;;18.89;100.00
12879;BME280;20617;49.476;10.986;2022-09-14T04:57:58;97358.66;;;18.92;100.00
12879;BME280;20617;49.476;10.986;2022-09-14T05:00:03;97367.13;;;18.96;100.00
12879;BME280;20617;49.476;10.986;2022-09-14T05:02:09;97374.91;;;18.97;100.00
12879;BME280;20617;49.476;10.986;2022-09-14T05:04:14;97368.38;;;19.02;100.00
12879;BME280;20617;49.476;10.986;2022-09-14T05:06:19;97366.72;;;19.00;100.00
12879;BME280;20617;49.476;10.986;2022-09-14T05:08:24;97355.19;;;19.02;100.00
12879;BME280;20617;49.476;10.986;2022-09-14T05:10:29;97341.03;;;19.03;100.00
12879;BME280;20617;49.476;10.986;2022-09-14T05:12:34;97344.22;;;19.06;100.00
12879;BME280;20617;49.476;10.986;2022-09-14T05:14:41;97337.97;;;19.07;100.00
12879;BME280;20617;49.476;10.986;2022-09-14T05:16:46;97337.25;;;19.05;100.00
12879;BME280;20617;49.476;10.986;2022-09-14T05:18:53;97331.03;;;19.06;100.00
12879;BME280;20617;49.476;10.986;2022-09-14T05:21:00;97338.09;;;18.96;100.00
12879;BME280;20617;49.476;10.986;2022-09-14T05:23:09;97331.28;;;18.93;100.00
12879;BME280;20617;49.476;10.986;2022-09-14T05:25:14;97332.84;;;18.86;100.00
12879;BME280;20617;49.476;10.986;2022-09-14T05:27:19;97324.66;;;18.89;100.00
12879;BME280;20617;49.476;10.986;2022-09-14T05:29:24;97325.06;;;18.94;100.00
12879;BME280;20617;49.476;10.986;2022-09-14T05:31:33;97322.97;;;18.98;100.00
12879;BME280;20617;49.476;10.986;2022-09-14T05:33:38;97310.91;;;18.95;100.00
12879;BME280;20617;49.476;10.986;2022-09-14T05:35:43;97308.13;;;18.97;100.00
12879;BME280;20617;49.476;10.986;2022-09-14T05:37:48;97311.59;;;18.97;100.00
12879;BME280;20617;49.476;10.986;2022-09-14T05:39:53;97308.97;;;18.97;100.00
12879;BME280;20617;49.476;10.986;2022-09-14T05:41:57;97304.38;;;18.99;100.00
12879;BME280;20617;49.476;10.986;2022-09-14T05:44:03;97306.03;;;19.00;100.00
12879;BME280;20617;49.476;10.986;2022-09-14T05:46:10;97305.06;;;19.02;100.00
12879;BME280;20617;49.476;10.986;2022-09-14T05:48:18;97301.03;;;19.07;100.00
12879;BME280;20617;49.476;10.986;2022-09-14T05:50:23;97301.72;;;19.09;100.00
12879;BME280;20617;49.476;10.986;2022-09-14T05:52:28;97300.75;;;19.10;100.00
12879;BME280;20617;49.476;10.986;2022-09-14T05:54:34;97293.25;;;19.15;100.00
12879;BME280;20617;49.476;10.986;2022-09-14T05:56:39;97286.84;;;19.18;100.00
12879;BME280;20617;49.476;10.986;2022-09-14T05:58:44;97289.34;;;19.19;100.00
12879;BME280;20617;49.476;10.986;2022-09-14T06:00:49;97283.69;;;19.14;100.00
12879;BME280;20617;49.476;10.986;2022-09-14T06:02:54;97287.28;;;19.13;100.00
12879;BME280;20617;49.476;10.986;2022-09-14T06:05:02;97281.31;;;19.11;100.00
12879;BME280;20617;49.476;10.986;2022-09-14T06:07:07;97282.84;;;19.04;100.00
12879;BME280;20617;49.476;10.986;2022-09-14T06:09:20;97270.78;;;19.02;100.00
12879;BME280;20617;49.476;10.986;2022-09-14T06:11:25;97279.00;;;18.89;100.00
12879;BME280;20617;49.476;10.986;2022-09-14T06:13:31;97276.09;;;18.82;100.00
12879;BME280;20617;49.476;10.986;2022-09-14T06:15:35;97264.69;;;18.82;100.00
12879;BME280;20617;49.476;10.986;2022-09-14T06:17:40;97265.78;;;18.79;100.00
12879;BME280;20617;49.476;10.986;2022-09-14T06:19:45;97268.72;;;18.76;100.00
12879;BME280;20617;49.476;10.986;2022-09-14T06:21:52;97265.50;;;18.72;100.00
12879;BME280;20617;49.476;10.986;2022-09-14T06:23:58;97260.50;;;18.69;100.00
12879;BME280;20617;49.476;10.986;2022-09-14T06:26:04;97259.81;;;18.67;100.00
12879;BME280;20617;49.476;10.986;2022-09-14T06:28:08;97251.66;;;18.70;100.00
12879;BME280;20617;49.476;10.986;2022-09-14T06:30:13;97249.41;;;18.66;100.00
12879;BME280;20617;49.476;10.986;2022-09-14T06:32:18;97254.69;;;18.56;100.00
12879;BME280;20617;49.476;10.986;2022-09-14T06:34:24;97251.38;;;18.54;100.00
12879;BME280;20617;49.476;10.986;2022-09-14T06:36:28;97253.56;;;18.59;100.00
12879;BME280;20617;49.476;10.986;2022-09-14T06:38:36;97253.16;;;18.63;100.00
12879;BME280;20617;49.476;10.986;2022-09-14T06:40:49;97259.81;;;18.67;100.00
12879;BME280;20617;49.476;10.986;2022-09-14T06:42:57;97263.31;;;18.68;100.00
12879;BME280;20617;49.476;10.986;2022-09-14T06:45:04;97265.50;;;18.72;100.00
12879;BME280;20617;49.476;10.986;2022-09-14T06:47:09;97267.59;;;18.78;100.00
12879;BME280;20617;49.476;10.986;2022-09-14T06:49:14;97261.66;;;18.76;100.00
12879;BME280;20617;49.476;10.986;2022-09-14T06:51:25;97266.94;;;18.76;100.00
12879;BME280;20617;49.476;10.986;2022-09-14T06:53:30;97268.03;;;18.74;100.00
12879;BME280;20617;49.476;10.986;2022-09-14T06:55:38;97267.22;;;18.73;100.00
12879;BME280;20617;49.476;10.986;2022-09-14T06:57:46;97274.16;;;18.74;100.00
12879;BME280;20617;49.476;10.986;2022-09-14T06:59:51;97271.06;;;18.79;100.00
12879;BME280;20617;49.476;10.986;2022-09-14T07:01:56;97269.00;;;18.83;100.00
12879;BME280;20617;49.476;10.986;2022-09-14T07:04:01;97275.66;;;18.87;100.00
12879;BME280;20617;49.476;10.986;2022-09-14T07:06:08;97270.50;;;18.95;100.00
12879;BME280;20617;49.476;10.986;2022-09-14T07:08:13;97270.50;;;18.95;100.00
12879;BME280;20617;49.476;10.986;2022-09-14T07:10:18;97266.88;;;18.96;100.00
12879;BME280;20617;49.476;10.986;2022-09-14T07:12:26;97262.84;;;19.02;100.00
12879;BME280;20617;49.476;10.986;2022-09-14T07:14:31;97262.44;;;18.96;100.00
12879;BME280;20617;49.476;10.986;2022-09-14T07:16:38;97261.34;;;18.99;100.00
12879;BME280;20617;49.476;10.986;2022-09-14T07:18:43;97267.03;;;19.04;100.00
12879;BME280;20617;49.476;10.986;2022-09-14T07:20:48;97249.38;;;19.05;100.00
12879;BME280;20617;49.476;10.986;2022-09-14T07:22:53;97254.53;;;19.06;100.00
12879;BME280;20617;49.476;10.986;2022-09-14T07:24:59;97247.72;;;19.04;100.00
12879;BME280;20617;49.476;10.986;2022-09-14T07:27:04;97253.00;;;19.04;100.00
12879;BME280;20617;49.476;10.986;2022-09-14T07:29:13;97250.91;;;19.07;100.00
12879;BME280;20617;49.476;10.986;2022-09-14T07:31:21;97254.09;;;19.11;100.00
12879;BME280;20617;49.476;10.986;2022-09-14T07:33:26;97251.31;;;19.12;100.00
12879;BME280;20617;49.476;10.986;2022-09-14T07:35:32;97266.03;;;19.15;100.00
12879;BME280;20617;49.476;10.986;2022-09-14T07:37:37;97265.22;;;19.14;100.00
12879;BME280;20617;49.476;10.986;2022-09-14T07:39:42;97246.03;;;19.12;100.00
12879;BME280;20617;49.476;10.986;2022-09-14T07:41:47;97250.22;;;19.15;100.00
12879;BME280;20617;49.476;10.986;2022-09-14T07:43:53;97251.72;;;19.17;100.00
12879;BME280;20617;49.476;10.986;2022-09-14T07:46:03;97246.84;;;19.22;100.00
12879;BME280;20617;49.476;10.986;2022-09-14T07:48:08;97256.56;;;19.32;100.00
12879;BME280;20617;49.476;10.986;2022-09-14T07:50:13;97265.41;;;19.40;100.00
12879;BME280;20617;49.476;10.986;2022-09-14T07:52:18;97263.72;;;19.49;100.00
12879;BME280;20617;49.476;10.986;2022-09-14T07:54:23;97264.38;;;19.51;100.00
12879;BME280;20617;49.476;10.986;2022-09-14T07:56:28;97254.53;;;19.53;100.00
12879;BME280;20617;49.476;10.986;2022-09-14T07:58:33;97257.28;;;19.61;100.00
12879;BME280;20617;49.476;10.986;2022-09-14T08:00:38;97264.47;;;19.69;100.00
12879;BME280;20617;49.476;10.986;2022-09-14T08:02:50;97262.22;;;19.74;100.00
12879;BME280;20617;49.476;10.986;2022-09-14T08:04:56;97256.53;;;19.79;100.00
12879;BME280;20617;49.476;10.986;2022-09-14T08:07:01;97261.94;;;19.77;100.00
12879;BME280;20617;49.476;10.986;2022-09-14T08:09:06;97266.94;;;19.80;100.00
12879;BME280;20617;49.476;10.986;2022-09-14T08:11:14;97270.78;;;19.86;100.00
12879;BME280;20617;49.476;10.986;2022-09-14T08:13:20;97259.94;;;19.89;100.00
12879;BME280;20617;49.476;10.986;2022-09-14T08:15:25;97273.44;;;19.86;100.00
12879;BME280;20617;49.476;10.986;2022-09-14T08:17:30;97265.75;;;19.65;100.00
12879;BME280;20617;49.476;10.986;2022-09-14T08:19:37;97259.19;;;19.69;100.00
12879;BME280;20617;49.476;10.986;2022-09-14T08:21:42;97260.59;;;19.73;100.00
12879;BME280;20617;49.476;10.986;2022-09-14T08:23:48;97259.00;;;19.80;100.00
12879;BME280;20617;49.476;10.986;2022-09-14T08:25:53;97263.03;;;19.84;100.00
12879;BME280;20617;49.476;10.986;2022-09-14T08:27:58;97264.09;;;19.92;100.00
12879;BME280;20617;49.476;10.986;2022-09-14T08:30:04;97263.81;;;19.95;100.00
12879;BME280;20617;49.476;10.986;2022-09-14T08:32:10;97266.97;;;19.98;100.00
12879;BME280;20617;49.476;10.986;2022-09-14T08:34:15;97264.06;;;20.01;100.00
12879;BME280;20617;49.476;10.986;2022-09-14T08:36:24;97265.41;;;20.05;100.00
12879;BME280;20617;49.476;10.986;2022-09-14T08:38:29;97263.75;;;20.04;100.00
12879;BME280;20617;49.476;10.986;2022-09-14T08:40:34;97259.97;;;20.07;100.00
12879;BME280;20617;49.476;10.986;2022-09-14T08:42:39;97265.81;;;20.10;100.00
12879;BME280;20617;49.476;10.986;2022-09-14T08:44:48;97259.22;;;20.15;100.00
12879;BME280;20617;49.476;10.986;2022-09-14T08:46:59;97262.25;;;20.20;100.00
12879;BME280;20617;49.476;10.986;2022-09-14T08:49:14;97265.44;;;20.23;100.00
12879;BME280;20617;49.476;10.986;2022-09-14T08:51:25;97260.16;;;20.23;100.00
12879;BME280;20617;49.476;10.986;2022-09-14T08:53:32;97262.34;;;20.28;100.00
12879;BME280;20617;49.476;10.986;2022-09-14T08:55:43;97261.38;;;20.29;100.00
12879;BME280;20617;49.476;10.986;2022-09-14T08:57:53;97265.53;;;20.31;100.00
12879;BME280;20617;49.476;10.986;2022-09-14T09:00:07;97264.53;;;20.32;100.00
12879;BME280;20617;49.476;10.986;2022-09-14T09:02:33;97263.41;;;20.35;100.00
12879;BME280;20617;49.476;10.986;2022-09-14T09:04:49;97264.91;;;20.38;100.00
12879;BME280;20617;49.476;10.986;2022-09-14T09:07:03;97270.91;;;20.40;100.00
12879;BME280;20617;49.476;10.986;2022-09-14T09:09:15;97280.34;;;20.42;100.00
12879;BME280;20617;49.476;10.986;2022-09-14T09:11:26;97276.53;;;20.45;100.00
12879;BME280;20617;49.476;10.986;2022-09-14T09:13:35;97278.75;;;20.49;100.00
12879;BME280;20617;49.476;10.986;2022-09-14T09:15:44;97285.56;;;20.52;100.00
12879;BME280;20617;49.476;10.986;2022-09-14T09:17:55;97274.84;;;20.53;100.00
12879;BME280;20617;49.476;10.986;2022-09-14T09:20:07;97273.56;;;20.57;100.00
12879;BME280;20617;49.476;10.986;2022-09-14T09:22:19;97272.28;;;20.62;100.00
12879;BME280;20617;49.476;10.986;2022-09-14T09:24:27;97273.78;;;20.64;100.00
12879;BME280;20617;49.476;10.986;2022-09-14T09:26:38;97274.00;;;20.71;100.00
12879;BME280;20617;49.476;10.986;2022-09-14T09:28:46;97283.84;;;20.78;100.00
12879;BME280;20617;49.476;10.986;2022-09-14T09:30:52;97287.69;;;20.84;100.00
12879;BME280;20617;49.476;10.986;2022-09-14T09:33:13;97296.66;;;20.91;100.00
12879;BME280;20617;49.476;10.986;2022-09-14T09:35:31;97301.13;;;20.91;100.00
12879;BME280;20617;49.476;10.986;2022-09-14T09:38:09;97306.66;;;20.79;100.00
12879;BME280;20617;49.476;10.986;2022-09-14T09:40:19;97310.06;;;20.72;100.00
12879;BME280;20617;49.476;10.986;2022-09-14T09:42:26;97313.16;;;20.67;100.00
12879;BME280;20617;49.476;10.986;2022-09-14T09:44:52;97319.13;;;20.69;100.00
12879;BME280;20617;49.476;10.986;2022-09-14T09:47:04;97334.69;;;20.54;100.00
12879;BME280;20617;49.476;10.986;2022-09-14T09:49:16;97341.84;;;20.62;100.00
12879;BME280;20617;49.476;10.986;2022-09-14T09:51:29;97343.53;;;20.63;100.00
12879;BME280;20617;49.476;10.986;2022-09-14T09:53:44;97350.13;;;20.49;100.00
12879;BME280;20617;49.476;10.986;2022-09-14T09:55:50;97357.56;;;20.36;100.00
12879;BME280;20617;49.476;10.986;2022-09-14T09:57:55;97360.28;;;20.26;100.00
12879;BME280;20617;49.476;10.986;2022-09-14T10:00:18;97364.59;;;20.00;100.00
12879;BME280;20617;49.476;10.986;2022-09-14T10:02:26;97361.09;;;19.99;100.00
12879;BME280;20617;49.476;10.986;2022-09-14T10:04:32;97351.47;;;20.08;100.00
12879;BME280;20617;49.476;10.986;2022-09-14T10:06:41;97360.88;;;20.20;100.00
12879;BME280;20617;49.476;10.986;2022-09-14T10:08:56;97358.91;;;20.22;100.00
12879;BME280;20617;49.476;10.986;2022-09-14T10:11:02;97351.81;;;20.23;100.00
12879;BME280;20617;49.476;10.986;2022-09-14T10:13:27;97341.31;;;20.13;100.00
12879;BME280;20617;49.476;10.986;2022-09-14T10:15:39;97339.31;;;20.25;100.00
12879;BME280;20617;49.476;10.986;2022-09-14T10:18:00;97331.22;;;20.26;100.00
12879;BME280;20617;49.476;10.986;2022-09-14T10:20:20;97325.81;;;20.46;100.00
12879;BME280;20617;49.476;10.986;2022-09-14T10:22:26;97311.84;;;20.53;100.00
12879;BME280;20617;49.476;10.986;2022-09-14T10:24:34;97308.97;;;20.47;100.00
12879;BME280;20617;49.476;10.986;2022-09-14T10:26:40;97307.66;;;20.61;100.00
12879;BME280;20617;49.476;10.986;2022-09-14T10:28:46;97306.13;;;20.76;100.00
12879;BME280;20617;49.476;10.986;2022-09-14T10:30:55;97312.19;;;20.86;100.00
12879;BME280;20617;49.476;10.986;2022-09-14T10:33:04;97301.94;;;20.91;100.00
12879;BME280;20617;49.476;10.986;2022-09-14T10:35:13;97304.59;;;20.91;100.00
12879;BME280;20617;49.476;10.986;2022-09-14T10:37:31;97302.59;;;21.11;100.00
12879;BME280;20617;49.476;10.986;2022-09-14T10:39:46;97301.44;;;21.32;100.00
12879;BME280;20617;49.476;10.986;2022-09-14T10:41:58;97284.38;;;21.52;100.00
12879;BME280;20617;49.476;10.986;2022-09-14T10:44:22;97279.25;;;21.51;100.00
12879;BME280;20617;49.476;10.986;2022-09-14T10:46:37;97279.19;;;21.42;100.00
12879;BME280;20617;49.476;10.986;2022-09-14T10:48:56;97281.63;;;21.36;100.00
12879;BME280;20617;49.476;10.986;2022-09-14T10:51:17;97269.97;;;21.29;100.00
12879;BME280;20617;49.476;10.986;2022-09-14T10:53:40;97275.75;;;21.24;100.00
12879;BME280;20617;49.476;10.986;2022-09-14T10:55:56;97270.19;;;21.35;100.00
12879;BME280;20617;49.476;10.986;2022-09-14T10:58:16;97271.66;;;21.56;100.00
12879;BME280;20617;49.476;10.986;2022-09-14T11:00:26;97259.25;;;21.56;100.00
12879;BME280;20617;49.476;10.986;2022-09-14T11:02:58;97270.09;;;21.71;100.00
12879;BME280;20617;49.476;10.986;2022-09-14T11:05:11;97266.16;;;21.83;100.00